Accueil
METAR-TAF:

METAR-TAF

Aéroports :

Aéroport de Kuujjuarapik

Kuujjuarapik, Québec, Canada

latitude: 55-17N, longitude: 077-46W, altitude: 21 m

Observation

Le bulletin a été fait il y a 1 heure et 10 minutes, à 01:00 UTC
Vent 6 kt de est
Température -4°C
Humidité 68%
Pression 1015 hPa
Visibilité: 14.5 km
Ciel clair

METAR: CYGW 220100Z AUTO 08006KT 9SM CLR M04/M09 A2998 RMK SLP153

Heure: 22:10 (02:10 UTC)

Prévision

Le bulletin a été fait il y a 2 heures et 31 minutes, à 23:39 UTC
Prévision valable du 22 à 00 UTC au 22 à 12 UTC
Vent 8 kt de nord/nord-est
Visibilité: 10 km
Nuages épars à une hauteur de 3000 ft
Evoluant progressivement
du 22 à 00 UTC au 22 à 02 UTC
Vent 5 kt de est

TAF: CYGW 212339Z 2200/2212 02008KT P6SM SCT030 BECMG 2200/2202 10005KT RMK FCST BASED ON AUTO OBS. NXT FCST BY 220600Z

Observations et prévisions météorologiques de plus de 4000 aéroports (messages METAR et TAF).

Les stations disponibles sont représentées par des disques jaunes et rouges sur la carte.

Passer la souris dessus pour voir le nom de la station.

Cliquer dessus pour voir les observations et prévisions météorologiques.

Pour changer de carte: cliquez sur les boutons verts avec une croix noire pour zoomer, sur le bouton vert avec un tiret pour effectuer un zoom arrière, ou sur les flèches vertes pour les cartes adjacentes.


METAR-TAF: